Portage, Pennsylvania
Current Conditions -  °F | °C
As of 2:03 AM on Thursday 27 Nov 2014 (Local Time) from KJST Reporting Station
Moderate Fog Moderate Fog  
Wind Chill: 23°   Ceiling: 200
Heat Index: 29°   Visibility: 0.25mi
Dew Point: 28°   Wind: 6mph
Humidity: 96%   Direction: 290°WNW
Pressure: 29.92"   Gusts: NA
Location:  40.39°N, 78.67°W
Report Text: KJST 270703Z AUTO 29005KT 1/4SM FZFG VV002 M02/M02 A2992 RMK AO2 UPB0657E02FZRAE0657 P0000 I1000 T10171022
Loading
Personal Weather Stations






























Interactive Weather Map New forecast layout! Learn more

10-Day Weather Forecast

Advertisements
Track Severe Weather on mobile